Time;durP1;ratioP1;P1;durP2;ratioP2;P2;SDS_P1;SDS_P2;PMS_P1;PMS_P2;Temp;Humidity;BMP_temperature;BMP_pressure;BME280_temperature;BME280_humidity;BME280_pressure;Samples;Min_cycle;Max_cycle;Signal;HPM_P1;HPM_P2
2022/06/06 00:00:44;;;;;;;10.68;9.00;;;16.00;99.90;;;;;;5053215;28;20383;-60
2022/06/06 00:03:11;;;;;;;10.57;8.50;;;16.00;99.90;;;;;;5051446;28;20059;-60
2022/06/06 00:05:40;;;;;;;12.95;8.98;;;16.00;99.90;;;;;;5050809;28;20072;-60
2022/06/06 00:08:05;;;;;;;11.55;8.88;;;16.10;99.90;;;;;;5049774;28;20558;-59
2022/06/06 00:10:31;;;;;;;12.63;8.80;;;16.00;99.90;;;;;;5050329;28;20123;-60
2022/06/06 00:12:57;;;;;;;9.77;8.60;;;16.10;99.90;;;;;;5050510;28;20096;-60
2022/06/06 00:15:23;;;;;;;10.38;8.50;;;16.10;99.90;;;;;;5051042;28;20049;-60
2022/06/06 00:17:49;;;;;;;12.77;8.63;;;16.00;99.90;;;;;;5051465;28;20056;-59
2022/06/06 00:20:16;;;;;;;10.30;8.85;;;16.00;99.90;;;;;;5051931;28;20542;-60
2022/06/06 00:22:42;;;;;;;12.18;9.38;;;16.00;99.90;;;;;;5054775;28;20098;-59
2022/06/06 00:25:08;;;;;;;10.15;8.52;;;16.00;99.90;;;;;;5054133;28;20799;-60
2022/06/06 00:27:35;;;;;;;13.57;9.15;;;16.00;99.90;;;;;;5054914;28;20071;-60
2022/06/06 00:30:01;;;;;;;13.70;9.73;;;16.00;99.90;;;;;;5054166;28;20075;-59
2022/06/06 00:35:11;;;;;;;13.18;10.00;;;16.00;99.90;;;;;;5051352;28;20084;-60
2022/06/06 00:37:39;;;;;;;15.68;10.88;;;16.00;99.90;;;;;;5051942;28;20147;-59
2022/06/06 00:40:07;;;;;;;12.32;10.68;;;16.00;99.90;;;;;;5050356;28;20064;-60
2022/06/06 00:42:39;;;;;;;12.57;10.23;;;16.00;99.90;;;;;;5050637;28;20046;-60
2022/06/06 00:45:27;;;;;;;13.55;11.00;;;16.00;99.90;;;;;;5046999;28;20502;-60
2022/06/06 00:48:08;;;;;;;13.93;10.48;;;16.00;99.90;;;;;;5049835;28;21077;-60
2022/06/06 00:50:57;;;;;;;15.15;10.70;;;15.90;99.90;;;;;;5056594;28;20062;-61
2022/06/06 00:53:33;;;;;;;16.05;11.60;;;15.90;99.90;;;;;;5056514;28;20044;-60
2022/06/06 00:56:06;;;;;;;14.98;11.25;;;15.90;99.90;;;;;;5055143;28;20101;-61
2022/06/06 00:58:35;;;;;;;18.13;11.55;;;15.90;99.90;;;;;;5052305;28;20155;-60
2022/06/06 01:01:01;;;;;;;16.73;12.02;;;15.90;99.90;;;;;;5054016;28;20039;-60
2022/06/06 01:03:29;;;;;;;15.15;11.52;;;15.90;99.90;;;;;;5056296;28;20045;-60
2022/06/06 01:05:58;;;;;;;22.05;12.07;;;15.90;99.90;;;;;;5055064;28;20048;-60
2022/06/06 01:08:24;;;;;;;18.77;12.88;;;15.90;99.90;;;;;;5057434;28;20056;-60
2022/06/06 01:10:50;;;;;;;20.70;12.57;;;15.90;99.90;;;;;;5054139;28;20044;-60
2022/06/06 01:13:22;;;;;;;17.38;12.55;;;15.90;99.90;;;;;;5053754;28;20056;-60
2022/06/06 01:15:56;;;;;;;18.58;12.80;;;15.90;99.90;;;;;;5055668;28;20044;-60
2022/06/06 01:18:55;;;;;;;20.15;12.88;;;15.90;99.90;;;;;;5052690;28;20060;-60
2022/06/06 01:21:43;;;;;;;19.15;11.90;;;15.90;99.90;;;;;;5052815;28;20626;-61
2022/06/06 01:24:44;;;;;;;20.63;11.95;;;15.80;99.90;;;;;;5052292;28;20052;-61
2022/06/06 01:27:40;;;;;;;20.42;10.95;;;15.80;99.90;;;;;;5009611;28;20142;-60
2022/06/06 01:30:10;;;;;;;17.60;10.45;;;15.80;99.90;;;;;;5053919;28;20044;-60
2022/06/06 01:32:59;;;;;;;17.27;10.20;;;15.70;99.90;;;;;;5050610;28;20053;-60
2022/06/06 01:35:32;;;;;;;18.02;10.23;;;15.70;99.90;;;;;;5051749;28;20057;-60
2022/06/06 01:37:58;;;;;;;23.92;11.55;;;15.60;99.90;;;;;;5049637;28;20052;-59
2022/06/06 01:40:28;;;;;;;20.67;10.95;;;15.60;99.90;;;;;;5055177;28;20132;-60
2022/06/06 01:43:05;;;;;;;20.42;11.07;;;15.60;99.90;;;;;;5054747;28;20040;-60
2022/06/06 01:45:31;;;;;;;20.40;11.10;;;15.50;99.90;;;;;;5056381;28;20048;-60
2022/06/06 01:48:10;;;;;;;17.70;10.68;;;15.40;99.90;;;;;;5047927;28;20044;-60
2022/06/06 01:50:39;;;;;;;19.67;10.52;;;15.40;99.90;;;;;;5051998;28;20040;-60
2022/06/06 01:53:08;;;;;;;16.67;9.23;;;15.30;99.90;;;;;;5054128;28;20049;-60
2022/06/06 01:55:37;;;;;;;22.52;10.25;;;15.30;99.90;;;;;;5050001;28;20049;-61
2022/06/06 01:58:07;;;;;;;17.08;9.55;;;15.20;99.90;;;;;;5053499;28;20086;-60
2022/06/06 02:00:35;;;;;;;19.02;10.10;;;15.20;99.90;;;;;;5052872;28;20049;-60
2022/06/06 02:03:02;;;;;;;14.85;9.13;;;15.20;99.90;;;;;;5053938;28;20052;-60
2022/06/06 02:05:28;;;;;;;18.58;9.88;;;15.10;99.90;;;;;;5056278;28;20077;-59
2022/06/06 02:07:54;;;;;;;14.52;9.13;;;15.10;99.90;;;;;;5055074;28;20076;-60
2022/06/06 02:10:21;;;;;;;19.25;9.82;;;15.10;99.90;;;;;;5052250;28;22062;-60
2022/06/06 02:12:48;;;;;;;11.27;8.48;;;15.00;99.90;;;;;;5054590;28;20081;-59
2022/06/06 02:15:17;;;;;;;19.05;9.25;;;15.00;99.90;;;;;;5050947;28;20123;-60
2022/06/06 02:17:43;;;;;;;13.82;7.40;;;15.00;99.90;;;;;;5053508;28;20142;-58
2022/06/06 02:20:12;;;;;;;12.35;7.45;;;14.90;99.90;;;;;;5051083;28;20044;-58
2022/06/06 02:22:38;;;;;;;12.52;7.38;;;15.00;99.90;;;;;;5053805;28;20484;-60
2022/06/06 02:25:06;;;;;;;19.00;8.00;;;14.90;99.90;;;;;;5056791;28;20052;-59
2022/06/06 02:27:33;;;;;;;10.20;7.25;;;14.80;99.90;;;;;;5049291;28;20060;-59
2022/06/06 02:30:00;;;;;;;12.27;6.40;;;14.80;99.90;;;;;;5055414;28;20158;-60
2022/06/06 02:32:26;;;;;;;12.55;6.18;;;14.80;99.90;;;;;;5053885;28;20044;-59
2022/06/06 02:34:51;;;;;;;8.52;5.50;;;14.70;99.90;;;;;;5049769;28;20052;-60
2022/06/06 02:37:17;;;;;;;12.73;5.82;;;14.70;99.90;;;;;;5053894;28;20052;-60
2022/06/06 02:39:43;;;;;;;12.73;6.03;;;14.70;99.90;;;;;;5052246;28;20423;-60
2022/06/06 02:42:09;;;;;;;7.60;5.40;;;14.60;99.90;;;;;;5056205;28;20051;-59
2022/06/06 02:44:35;;;;;;;10.85;5.47;;;14.60;99.90;;;;;;5056430;28;20040;-60
2022/06/06 02:47:01;;;;;;;11.50;5.55;;;14.60;99.90;;;;;;5056627;28;20052;-60
2022/06/06 02:49:27;;;;;;;10.40;5.75;;;14.60;99.90;;;;;;5055127;28;20113;-60
2022/06/06 02:51:52;;;;;;;12.40;6.00;;;14.60;99.90;;;;;;5055032;28;20087;-60
2022/06/06 02:54:18;;;;;;;7.95;5.68;;;14.60;99.90;;;;;;5054353;28;20139;-60
2022/06/06 02:56:44;;;;;;;8.07;5.45;;;14.60;99.90;;;;;;5052354;28;20055;-59
2022/06/06 02:59:11;;;;;;;10.63;6.07;;;14.60;99.90;;;;;;5051497;28;20055;-59
2022/06/06 03:01:37;;;;;;;8.10;5.80;;;14.50;99.90;;;;;;5056090;28;20178;-59
2022/06/06 03:04:03;;;;;;;13.60;5.80;;;14.50;99.90;;;;;;5047564;28;20765;-60
2022/06/06 03:07:07;;;;;;;8.68;5.93;;;14.50;99.90;;;;;;5052397;28;20123;-59
2022/06/06 03:09:57;;;;;;;9.25;5.93;;;14.50;99.90;;;;;;5053675;28;20150;-60
2022/06/06 03:12:38;;;;;;;8.68;5.55;;;14.50;99.90;;;;;;5037643;28;20045;-59
2022/06/06 03:15:16;;;;;;;8.55;5.55;;;14.40;99.90;;;;;;5051943;28;20080;-60
2022/06/06 03:21:26;;;;;;;8.38;5.78;;;14.40;99.90;;;;;;5053802;28;20044;-59
2022/06/06 03:24:01;;;;;;;9.65;6.63;;;14.40;99.90;;;;;;5014335;28;20048;-60
2022/06/06 03:26:46;;;;;;;11.93;6.75;;;14.40;99.90;;;;;;5054844;28;20048;-59
2022/06/06 03:29:17;;;;;;;9.98;7.05;;;14.40;99.90;;;;;;5055298;28;20230;-60
2022/06/06 03:32:01;;;;;;;9.60;6.95;;;14.40;99.90;;;;;;5053151;28;22244;-59
2022/06/06 03:34:27;;;;;;;11.48;7.72;;;14.40;99.90;;;;;;5044869;28;20068;-59
2022/06/06 03:37:08;;;;;;;11.82;7.28;;;14.40;99.90;;;;;;5048106;28;20178;-60
2022/06/06 03:40:03;;;;;;;12.27;7.55;;;14.40;99.90;;;;;;5054112;28;20479;-60
2022/06/06 03:42:37;;;;;;;11.82;7.63;;;14.40;99.90;;;;;;5056476;28;20115;-59
2022/06/06 03:45:19;;;;;;;11.02;7.60;;;14.40;99.90;;;;;;5046011;28;20131;-60
2022/06/06 03:47:59;;;;;;;11.17;7.00;;;14.40;99.90;;;;;;5050749;28;20133;-58
2022/06/06 03:51:06;;;;;;;10.05;6.97;;;14.30;99.90;;;;;;5055501;28;20498;-61
2022/06/06 03:54:06;;;;;;;10.95;7.10;;;14.30;99.90;;;;;;5036745;28;20060;-60
2022/06/06 03:57:11;;;;;;;11.43;7.10;;;14.30;99.90;;;;;;5052813;28;23964;-60
2022/06/06 03:59:39;;;;;;;9.52;6.88;;;14.30;99.90;;;;;;5054172;28;20049;-59
2022/06/06 04:02:06;;;;;;;10.82;7.13;;;14.30;99.90;;;;;;5058820;28;20053;-60
2022/06/06 04:04:34;;;;;;;7.28;5.85;;;14.30;99.90;;;;;;5054596;28;20067;-59
2022/06/06 04:07:02;;;;;;;8.98;7.22;;;14.30;99.90;;;;;;5053100;28;20052;-60
2022/06/06 04:09:29;;;;;;;9.10;6.70;;;14.30;99.90;;;;;;5053196;28;20071;-60
2022/06/06 04:12:11;;;;;;;9.48;6.75;;;14.30;99.90;;;;;;5055401;28;20052;-60
2022/06/06 04:15:06;;;;;;;9.68;6.43;;;14.30;99.90;;;;;;5051734;28;20135;-59
2022/06/06 04:18:09;;;;;;;9.27;6.38;;;14.30;99.90;;;;;;5048533;28;20160;-57
2022/06/06 04:20:56;;;;;;;10.77;6.40;;;14.30;99.90;;;;;;5053576;28;20044;-57
2022/06/06 04:24:03;;;;;;;9.77;6.03;;;14.30;99.90;;;;;;5049736;28;20057;-58
2022/06/06 04:27:01;;;;;;;9.15;6.05;;;14.30;99.90;;;;;;5020539;28;20067;-57
2022/06/06 04:29:45;;;;;;;7.45;5.78;;;14.30;99.90;;;;;;5026659;28;20155;-57
2022/06/06 04:32:43;;;;;;;7.25;6.00;;;14.30;99.90;;;;;;5054907;28;20132;-57
2022/06/06 04:35:39;;;;;;;7.63;5.57;;;14.30;99.90;;;;;;5043735;28;20094;-58
2022/06/06 04:38:36;;;;;;;7.30;6.03;;;14.30;99.90;;;;;;5049587;28;20059;-58
2022/06/06 04:41:29;;;;;;;8.18;5.78;;;14.30;99.90;;;;;;5052509;28;20056;-57
2022/06/06 04:44:30;;;;;;;7.67;5.40;;;14.30;99.90;;;;;;5050273;28;20140;-58
2022/06/06 04:47:14;;;;;;;6.18;5.25;;;14.30;99.90;;;;;;5041129;28;20359;-58
2022/06/06 04:49:41;;;;;;;7.95;5.57;;;14.30;99.90;;;;;;5049520;28;20048;-57
2022/06/06 04:52:08;;;;;;;7.10;5.72;;;14.40;99.90;;;;;;5050044;28;20053;-58
2022/06/06 04:54:39;;;;;;;8.05;5.88;;;14.40;99.90;;;;;;5048989;28;20402;-58
2022/06/06 04:57:06;;;;;;;7.05;5.35;;;14.40;99.90;;;;;;5051545;28;20571;-58
2022/06/06 04:59:33;;;;;;;5.93;5.00;;;14.40;99.90;;;;;;5046355;28;20147;-58
2022/06/06 05:02:00;;;;;;;5.80;4.72;;;14.40;99.90;;;;;;5051392;28;20048;-57
2022/06/06 05:04:26;;;;;;;4.90;3.95;;;14.40;99.90;;;;;;5026859;28;20068;-58
2022/06/06 05:07:05;;;;;;;4.88;3.80;;;14.40;99.90;;;;;;5053794;28;20048;-58
2022/06/06 05:09:56;;;;;;;6.70;3.10;;;14.40;99.90;;;;;;5053819;28;20048;-58
2022/06/06 05:12:38;;;;;;;3.63;2.67;;;14.40;99.90;;;;;;5051184;28;20052;-58
2022/06/06 05:15:41;;;;;;;3.10;2.80;;;14.40;99.90;;;;;;5054030;28;20449;-57
2022/06/06 05:18:16;;;;;;;3.97;3.55;;;14.40;99.90;;;;;;5044804;28;20513;-58
2022/06/06 05:20:57;;;;;;;4.60;4.10;;;14.40;99.90;;;;;;5051893;28;20040;-59
2022/06/06 05:23:56;;;;;;;4.93;4.25;;;14.40;99.90;;;;;;5052313;28;20637;-58
2022/06/06 05:26:56;;;;;;;7.90;4.85;;;14.40;99.90;;;;;;5050515;28;20048;-59
2022/06/06 05:29:44;;;;;;;6.60;5.15;;;14.40;99.90;;;;;;5053568;28;20049;-59
2022/06/06 05:32:28;;;;;;;6.78;4.53;;;14.30;99.90;;;;;;5045948;28;20079;-59
2022/06/06 05:35:25;;;;;;;7.20;4.32;;;14.30;99.90;;;;;;5048549;28;20071;-59
2022/06/06 05:38:28;;;;;;;5.32;4.28;;;14.30;99.90;;;;;;5056440;28;20049;-59
2022/06/06 05:41:22;;;;;;;5.30;4.28;;;14.30;99.90;;;;;;5048692;28;20457;-59
2022/06/06 05:43:58;;;;;;;6.55;4.97;;;14.20;99.90;;;;;;5054328;28;20167;-59
2022/06/06 05:46:33;;;;;;;5.57;4.80;;;14.20;99.90;;;;;;5054540;28;20094;-59
2022/06/06 05:49:03;;;;;;;6.93;5.10;;;14.20;99.90;;;;;;5052083;28;22025;-59
2022/06/06 05:51:46;;;;;;;10.43;5.35;;;14.20;99.90;;;;;;5043025;28;20892;-59
2022/06/06 05:55:05;;;;;;;9.07;6.30;;;14.10;99.90;;;;;;5053398;28;20402;-59
2022/06/06 05:57:47;;;;;;;11.55;7.13;;;14.20;99.90;;;;;;5030646;28;20128;-59
2022/06/06 06:00:26;;;;;;;14.02;7.85;;;14.10;99.90;;;;;;5027997;28;20041;-59
2022/06/06 06:03:01;;;;;;;17.27;8.52;;;14.10;99.90;;;;;;5046452;28;20150;-58
2022/06/06 06:05:57;;;;;;;12.50;7.38;;;14.10;99.90;;;;;;5047433;28;20483;-59
2022/06/06 06:08:44;;;;;;;13.90;7.05;;;14.10;99.90;;;;;;5053628;28;20044;-59
2022/06/06 06:11:25;;;;;;;12.27;6.80;;;14.10;99.90;;;;;;5052695;28;20044;-59
2022/06/06 06:14:12;;;;;;;13.43;6.50;;;14.10;99.90;;;;;;5049612;28;20117;-59
2022/06/06 06:16:43;;;;;;;9.77;6.28;;;14.10;99.90;;;;;;5056432;28;20494;-59
2022/06/06 06:19:12;;;;;;;11.13;6.05;;;14.10;99.90;;;;;;5047911;28;21072;-59
2022/06/06 06:21:54;;;;;;;9.02;5.68;;;14.10;99.90;;;;;;5055502;28;21191;-58
2022/06/06 06:24:35;;;;;;;8.25;5.72;;;14.10;99.90;;;;;;5053048;28;20123;-59
2022/06/06 06:27:03;;;;;;;9.82;6.00;;;14.10;99.90;;;;;;5049558;28;20052;-59
2022/06/06 06:29:30;;;;;;;8.70;5.97;;;14.10;99.90;;;;;;5038403;28;20048;-59
2022/06/06 06:32:31;;;;;;;11.18;6.10;;;14.00;99.90;;;;;;5052229;28;20055;-59
2022/06/06 06:35:16;;;;;;;13.00;6.65;;;14.00;99.90;;;;;;5054456;28;20410;-59
2022/06/06 06:38:09;;;;;;;14.95;6.82;;;14.00;99.90;;;;;;5052506;28;20056;-60
2022/06/06 06:41:23;;;;;;;12.88;6.85;;;14.00;99.90;;;;;;5049307;28;20056;-59
2022/06/06 06:44:12;;;;;;;11.15;6.82;;;14.00;99.90;;;;;;5047391;28;20053;-59
2022/06/06 06:46:49;;;;;;;13.15;6.47;;;14.00;99.90;;;;;;5050650;28;20040;-59
2022/06/06 06:49:26;;;;;;;10.57;7.15;;;14.00;99.90;;;;;;5053961;28;20048;-59
2022/06/06 06:52:10;;;;;;;8.23;5.88;;;14.00;99.90;;;;;;5057083;28;20052;-58
2022/06/06 06:55:10;;;;;;;9.25;4.95;;;14.10;99.90;;;;;;5054448;28;20044;-59
2022/06/06 06:58:13;;;;;;;9.45;5.20;;;14.20;99.90;;;;;;5053622;28;20517;-59
2022/06/06 07:01:03;;;;;;;6.95;3.95;;;14.30;99.90;;;;;;5054322;28;20068;-60
2022/06/06 07:09:46;;;;;;;4.85;3.15;;;14.50;99.90;;;;;;5055449;28;20045;-59
2022/06/06 07:12:21;;;;;;;4.95;3.50;;;14.60;99.90;;;;;;5054892;28;20044;-57
2022/06/06 07:14:50;;;;;;;4.03;3.08;;;14.60;99.90;;;;;;5054816;28;20720;-59
2022/06/06 07:17:18;;;;;;;7.43;3.40;;;14.70;99.90;;;;;;5054730;28;20055;-59
2022/06/06 07:19:48;;;;;;;5.40;3.33;;;14.70;99.90;;;;;;5055692;28;20036;-59
2022/06/06 07:22:16;;;;;;;11.45;3.13;;;14.70;99.90;;;;;;5054052;28;20368;-59
2022/06/06 07:24:45;;;;;;;5.18;2.97;;;14.80;99.90;;;;;;5054918;28;20086;-58
2022/06/06 07:27:11;;;;;;;9.85;3.40;;;14.70;99.90;;;;;;5053608;28;20040;-59
2022/06/06 07:29:38;;;;;;;6.50;3.30;;;14.70;99.90;;;;;;5047679;28;20037;-59
2022/06/06 07:32:30;;;;;;;5.95;3.25;;;14.70;99.90;;;;;;5057285;28;20070;-59
2022/06/06 07:35:31;;;;;;;5.88;3.53;;;14.70;99.90;;;;;;5043092;28;20040;-59
2022/06/06 07:38:16;;;;;;;6.75;2.97;;;14.70;99.90;;;;;;5056837;28;20072;-59
2022/06/06 07:41:07;;;;;;;6.68;2.97;;;14.80;99.90;;;;;;5058093;28;20127;-60
2022/06/06 07:44:05;;;;;;;9.57;3.20;;;14.80;99.90;;;;;;5054526;28;20047;-59
2022/06/06 07:46:42;;;;;;;9.05;3.20;;;14.80;99.90;;;;;;5046016;28;20611;-59
2022/06/06 07:49:39;;;;;;;4.93;3.10;;;14.80;99.90;;;;;;5043643;28;20055;-60
2022/06/06 07:52:14;;;;;;;4.75;3.20;;;14.80;99.90;;;;;;5058250;28;20040;-59
2022/06/06 07:54:52;;;;;;;8.13;3.00;;;14.80;99.90;;;;;;5061101;28;20113;-59
2022/06/06 07:57:48;;;;;;;7.40;2.88;;;14.80;99.90;;;;;;5060402;28;20122;-59
2022/06/06 08:00:19;;;;;;;4.93;3.00;;;14.80;99.90;;;;;;5060634;28;20036;-59
2022/06/06 08:03:19;;;;;;;8.30;3.47;;;15.00;99.90;;;;;;5060751;28;20083;-59
2022/06/06 08:06:02;;;;;;;5.32;3.10;;;15.00;99.90;;;;;;5035044;28;20040;-60
2022/06/06 08:08:50;;;;;;;6.22;2.83;;;15.10;99.90;;;;;;5061814;28;20130;-58
2022/06/06 08:11:47;;;;;;;7.40;2.88;;;15.20;99.90;;;;;;5058495;28;20044;-59
2022/06/06 08:14:21;;;;;;;7.57;2.97;;;15.30;99.90;;;;;;5061325;28;20851;-59
2022/06/06 08:17:08;;;;;;;6.40;2.90;;;15.40;99.90;;;;;;5058177;28;20071;-59
2022/06/06 08:20:01;;;;;;;5.93;3.05;;;15.50;99.90;;;;;;5060996;28;20642;-59
2022/06/06 08:22:29;;;;;;;6.82;3.10;;;15.60;99.90;;;;;;5057996;28;20040;-59
2022/06/06 08:24:59;;;;;;;5.78;2.88;;;15.70;99.90;;;;;;5060632;28;20044;-60
2022/06/06 08:27:27;;;;;;;7.78;3.28;;;15.70;99.90;;;;;;5061006;28;20056;-59
2022/06/06 08:29:53;;;;;;;5.72;3.40;;;15.70;99.90;;;;;;5058169;28;20074;-60
2022/06/06 08:32:19;;;;;;;5.28;3.75;;;15.80;99.90;;;;;;5055883;28;20430;-59
2022/06/06 08:34:47;;;;;;;6.78;3.53;;;15.80;99.90;;;;;;5057269;28;20044;-59
2022/06/06 08:37:36;;;;;;;6.68;3.80;;;15.90;99.90;;;;;;5059186;28;20052;-59
2022/06/06 08:40:19;;;;;;;6.00;3.35;;;16.00;99.90;;;;;;5054118;28;20515;-59
2022/06/06 08:43:00;;;;;;;;;;;16.20;99.90;;;;;;5057308;28;20067;-60
2022/06/06 08:45:52;;;;;;;5.43;3.72;;;16.40;99.90;;;;;;5053180;28;20078;-60
2022/06/06 08:48:38;;;;;;;7.65;3.90;;;16.60;99.90;;;;;;5052764;28;20044;-60
2022/06/06 08:51:29;;;;;;;4.97;3.38;;;16.70;99.90;;;;;;5056404;28;20102;-60
2022/06/06 08:54:32;;;;;;;6.65;3.03;;;16.70;99.90;;;;;;5040503;28;20067;-59
2022/06/06 08:57:25;;;;;;;4.95;2.97;;;16.60;99.90;;;;;;5046471;28;20041;-59
2022/06/06 09:00:32;;;;;;;5.95;3.15;;;16.50;99.90;;;;;;5011368;28;20490;-59
2022/06/06 09:03:16;;;;;;;5.43;3.45;;;16.40;99.90;;;;;;4985699;28;20050;-60
2022/06/06 09:06:03;;;;;;;7.93;3.10;;;16.20;99.90;;;;;;5040405;28;20036;-60
2022/06/06 09:08:53;;;;;;;7.00;3.15;;;16.10;99.90;;;;;;5052270;28;20053;-60
2022/06/06 09:11:53;;;;;;;7.63;3.35;;;15.80;99.90;;;;;;5048424;28;20055;-60
2022/06/06 09:14:19;;;;;;;6.20;3.42;;;15.70;99.90;;;;;;5048323;28;20047;-60
2022/06/06 09:17:12;;;;;;;4.80;3.30;;;15.50;99.90;;;;;;5047906;28;20794;-59
2022/06/06 09:19:38;;;;;;;;;;;15.40;99.90;;;;;;5055041;28;20048;-59
2022/06/06 09:22:10;;;;;;;6.90;4.20;;;15.30;99.90;;;;;;5034894;28;19943;-60
2022/06/06 09:24:36;;;;;;;13.10;3.83;;;15.40;99.90;;;;;;5050795;28;20049;-60
2022/06/06 09:27:30;;;;;;;7.50;4.20;;;15.50;99.90;;;;;;5050795;28;21971;-60
2022/06/06 09:30:16;;;;;;;9.63;4.57;;;15.50;99.90;;;;;;5052438;28;20040;-60
2022/06/06 09:33:10;;;;;;;8.63;4.45;;;15.70;99.90;;;;;;5049651;28;20049;-59
2022/06/06 09:35:44;;;;;;;7.32;4.00;;;16.00;99.90;;;;;;5053502;28;20494;-61
2022/06/06 09:38:48;;;;;;;6.05;4.13;;;16.20;99.90;;;;;;5051542;28;20067;-60
2022/06/06 09:41:40;;;;;;;5.28;3.53;;;16.40;99.90;;;;;;5052401;28;20102;-60
2022/06/06 09:44:17;;;;;;;5.22;4.00;;;16.60;99.90;;;;;;5056203;28;20040;-60
2022/06/06 09:47:20;;;;;;;10.82;4.00;;;16.80;99.90;;;;;;5016554;28;20128;-60
2022/06/06 09:50:16;;;;;;;9.10;4.15;;;17.00;99.90;;;;;;5057446;28;20048;-60
2022/06/06 09:53:26;;;;;;;10.07;3.60;;;17.10;99.90;;;;;;5053574;28;20040;-59
2022/06/06 09:59:19;;;;;;;7.90;3.38;;;17.50;99.90;;;;;;5053680;28;20520;-60
2022/06/06 10:02:06;;;;;;;5.82;3.13;;;17.70;99.90;;;;;;5051160;28;20041;-59
2022/06/06 10:05:04;;;;;;;5.72;3.03;;;17.90;99.90;;;;;;5051650;28;20589;-60
2022/06/06 10:08:06;;;;;;;5.18;2.05;;;18.20;99.90;;;;;;5051506;28;20087;-59
2022/06/06 10:10:38;;;;;;;6.88;3.08;;;18.40;99.90;;;;;;5052247;28;20052;-60
2022/06/06 10:13:27;;;;;;;10.30;2.67;;;18.70;99.90;;;;;;5049441;28;20607;-60
2022/06/06 10:16:16;;;;;;;6.43;2.08;;;18.90;99.90;;;;;;5050664;28;20036;-59
2022/06/06 10:18:54;;;;;;;9.50;2.00;;;19.00;99.90;;;;;;5052646;28;20070;-59
2022/06/06 10:21:44;;;;;;;8.25;2.13;;;19.10;99.90;;;;;;5056601;28;20119;-60
2022/06/06 10:24:25;;;;;;;8.52;2.53;;;19.10;99.90;;;;;;5050960;28;20113;-60
2022/06/06 10:27:09;;;;;;;10.43;2.30;;;19.10;99.90;;;;;;5040856;28;20071;-60
2022/06/06 10:30:12;;;;;;;5.00;2.33;;;19.10;99.90;;;;;;5058298;28;20044;-61
2022/06/06 10:32:47;;;;;;;9.13;1.90;;;19.00;99.90;;;;;;5050996;28;20040;-60
2022/06/06 10:36:00;;;;;;;5.95;1.75;;;18.90;99.90;;;;;;5054835;28;20090;-61
2022/06/06 10:38:57;;;;;;;5.30;1.65;;;18.80;99.90;;;;;;5032609;28;20056;-60
2022/06/06 10:41:55;;;;;;;6.85;1.75;;;18.90;99.90;;;;;;5050776;28;20518;-61
2022/06/06 10:44:39;;;;;;;7.50;1.50;;;19.30;99.90;;;;;;5050466;28;20118;-60
2022/06/06 10:47:17;;;;;;;5.63;1.50;;;19.50;99.90;;;;;;5050243;28;20047;-60
2022/06/06 10:50:00;;;;;;;7.00;1.90;;;19.60;99.90;;;;;;5045097;28;20102;-60
2022/06/06 10:52:48;;;;;;;3.95;1.10;;;19.70;99.90;;;;;;5054136;28;20499;-60
2022/06/06 10:55:49;;;;;;;7.13;1.50;;;19.70;98.80;;;;;;5051301;28;20043;-60
2022/06/06 10:58:35;;;;;;;4.00;1.50;;;19.70;98.50;;;;;;5030600;28;20053;-60
2022/06/06 11:01:06;;;;;;;4.53;1.60;;;19.90;98.30;;;;;;5045948;28;20041;-60
2022/06/06 11:04:10;;;;;;;8.57;1.60;;;20.00;98.20;;;;;;5055556;28;20068;-60
2022/06/06 11:06:38;;;;;;;5.97;1.55;;;19.80;98.20;;;;;;5052190;28;20044;-61
2022/06/06 11:09:44;;;;;;;6.70;1.92;;;19.50;98.20;;;;;;5050442;28;20047;-60
2022/06/06 11:12:48;;;;;;;4.15;1.67;;;19.50;99.30;;;;;;5051215;28;20475;-61
2022/06/06 11:15:13;;;;;;;;;;;19.70;99.20;;;;;;5054264;28;20048;-60
2022/06/06 11:18:11;;;;;;;4.75;1.50;;;19.60;99.30;;;;;;5050039;28;19928;-60
2022/06/06 11:20:40;;;;;;;5.35;1.25;;;19.80;99.90;;;;;;5005645;28;20091;-60
2022/06/06 11:23:09;;;;;;;5.57;1.40;;;19.90;98.60;;;;;;5054931;28;21334;-61
2022/06/06 11:25:50;;;;;;;7.85;1.75;;;19.80;97.40;;;;;;5054718;28;20344;-61
2022/06/06 11:28:49;;;;;;;6.20;1.77;;;19.80;98.10;;;;;;5057037;28;20048;-61
2022/06/06 11:31:27;;;;;;;5.40;1.40;;;19.80;97.90;;;;;;5055035;28;20052;-61
2022/06/06 11:34:32;;;;;;;6.88;1.40;;;19.80;97.10;;;;;;5050632;28;20056;-61
2022/06/06 11:37:17;;;;;;;5.32;1.30;;;19.60;97.00;;;;;;5046317;28;20497;-60
2022/06/06 11:40:21;;;;;;;6.55;1.52;;;19.40;96.50;;;;;;5057202;28;20037;-61
2022/06/06 11:43:09;;;;;;;5.45;1.75;;;19.40;96.60;;;;;;5057997;28;20119;-60
2022/06/06 11:45:54;;;;;;;5.78;1.42;;;19.60;97.80;;;;;;5050821;28;20036;-61
2022/06/06 11:48:58;;;;;;;7.70;1.30;;;20.00;96.80;;;;;;5048861;28;20107;-60
2022/06/06 11:52:06;;;;;;;7.32;1.30;;;20.30;96.10;;;;;;5028969;28;20064;-59
2022/06/06 11:54:43;;;;;;;5.15;1.80;;;20.30;94.30;;;;;;5061527;28;20194;-60
2022/06/06 11:57:18;;;;;;;4.15;1.50;;;20.10;94.10;;;;;;5060092;28;20045;-61
2022/06/06 12:00:03;;;;;;;5.43;1.70;;;19.80;94.10;;;;;;5059525;28;20037;-61
2022/06/06 12:02:57;;;;;;;5.20;1.70;;;19.40;95.00;;;;;;5056284;28;20044;-60
2022/06/06 12:05:49;;;;;;;4.50;1.60;;;19.10;96.30;;;;;;5063317;28;20044;-60
2022/06/06 12:08:30;;;;;;;3.92;1.73;;;18.80;97.60;;;;;;5062672;28;20040;-60
2022/06/06 12:11:27;;;;;;;5.32;1.75;;;18.70;98.30;;;;;;5061285;28;20052;-61
2022/06/06 12:14:21;;;;;;;6.40;1.67;;;18.50;98.70;;;;;;5035358;28;20628;-59
2022/06/06 12:17:12;;;;;;;7.25;2.15;;;18.30;98.70;;;;;;5055592;28;20048;-60
2022/06/06 12:20:09;;;;;;;8.60;2.30;;;18.10;99.50;;;;;;5053122;28;20499;-60
2022/06/06 12:22:40;;;;;;;5.55;1.95;;;18.10;99.90;;;;;;5063193;28;20499;-60
2022/06/06 12:25:15;;;;;;;5.82;2.33;;;18.20;99.90;;;;;;5054868;28;20048;-61
2022/06/06 12:28:03;;;;;;;6.05;2.08;;;18.50;99.90;;;;;;5052974;28;20044;-61
2022/06/06 12:31:01;;;;;;;6.38;2.33;;;18.80;99.90;;;;;;5052946;28;20438;-60
2022/06/06 12:33:43;;;;;;;5.00;2.28;;;18.80;99.90;;;;;;5050744;28;20044;-60
2022/06/06 12:36:22;;;;;;;8.27;2.28;;;18.70;99.90;;;;;;5048941;28;20037;-59
2022/06/06 12:39:03;;;;;;;8.93;2.80;;;18.50;99.90;;;;;;5051794;28;20105;-59
2022/06/06 12:41:50;;;;;;;6.35;2.33;;;18.30;99.90;;;;;;5052350;28;20060;-59
2022/06/06 12:44:34;;;;;;;4.45;1.60;;;18.00;99.90;;;;;;5048026;28;20063;-59
2022/06/06 12:47:42;;;;;;;2.92;1.50;;;17.80;99.90;;;;;;5053824;28;20112;-60
2022/06/06 12:50:36;;;;;;;4.65;1.80;;;17.60;99.90;;;;;;5030333;28;20407;-59
2022/06/06 12:53:08;;;;;;;5.43;1.98;;;17.40;99.90;;;;;;5057745;28;20401;-59
2022/06/06 12:56:02;;;;;;;;;;;17.20;99.90;;;;;;5057368;28;20045;-59
2022/06/06 12:58:38;;;;;;;6.07;2.50;;;17.00;99.90;;;;;;5057963;28;20338;-59
2022/06/06 13:01:37;;;;;;;5.47;2.30;;;16.90;99.90;;;;;;5054644;28;20040;-59
2022/06/06 13:04:21;;;;;;;3.70;2.10;;;16.80;99.90;;;;;;5055061;28;20067;-59
2022/06/06 13:07:05;;;;;;;6.05;2.60;;;16.70;99.90;;;;;;5057399;28;20041;-59
2022/06/06 13:10:00;;;;;;;10.30;2.80;;;16.60;99.90;;;;;;5057285;28;20097;-58
2022/06/06 13:12:39;;;;;;;6.30;2.70;;;16.40;99.90;;;;;;5058094;28;20052;-59
2022/06/06 13:15:23;;;;;;;4.85;2.60;;;16.20;99.90;;;;;;5052201;28;20049;-59
2022/06/06 13:18:28;;;;;;;7.18;2.60;;;16.10;99.90;;;;;;5042648;28;20049;-57
2022/06/06 13:21:18;;;;;;;7.85;2.13;;;16.00;99.90;;;;;;5058406;28;20417;-59
2022/06/06 13:24:20;;;;;;;4.47;1.95;;;16.00;99.90;;;;;;5057206;28;20040;-58
2022/06/06 13:26:50;;;;;;;10.85;2.53;;;16.10;99.90;;;;;;5026669;28;20052;-59
2022/06/06 13:29:36;;;;;;;4.55;2.20;;;16.20;99.90;;;;;;5044848;28;20524;-58
2022/06/06 13:32:47;;;;;;;4.68;2.28;;;16.30;99.90;;;;;;5053714;28;20095;-59
2022/06/06 13:35:27;;;;;;;5.78;2.50;;;16.30;99.90;;;;;;5052908;28;20661;-58
2022/06/06 13:38:01;;;;;;;4.35;2.58;;;16.30;99.90;;;;;;5056443;28;20432;-59
2022/06/06 13:40:36;;;;;;;5.85;2.70;;;16.20;99.90;;;;;;5057868;28;20091;-58
2022/06/06 13:43:27;;;;;;;8.15;3.10;;;16.20;99.90;;;;;;5059909;28;20053;-58
2022/06/06 13:46:20;;;;;;;6.47;2.80;;;16.20;99.90;;;;;;5055611;28;20032;-58
2022/06/06 13:48:57;;;;;;;9.38;3.00;;;16.10;99.90;;;;;;5056352;28;20048;-58
2022/06/06 13:52:01;;;;;;;4.45;2.90;;;16.00;99.90;;;;;;5056045;28;20041;-59
2022/06/06 13:54:29;;;;;;;5.38;3.63;;;16.00;99.90;;;;;;5037888;28;20048;-58
2022/06/06 13:57:21;;;;;;;5.07;3.20;;;15.80;99.90;;;;;;5054409;28;20072;-58
2022/06/06 14:00:10;;;;;;;3.83;3.22;;;15.80;99.90;;;;;;5046102;28;20425;-59
2022/06/06 14:03:00;;;;;;;7.78;3.63;;;15.60;99.90;;;;;;5053959;28;20040;-58
2022/06/06 14:05:51;;;;;;;8.40;3.47;;;15.60;99.90;;;;;;5056100;28;20114;-58
2022/06/06 14:08:20;;;;;;;7.22;3.92;;;15.50;99.90;;;;;;5054723;28;20123;-59
2022/06/06 14:10:58;;;;;;;10.85;3.97;;;15.40;99.90;;;;;;5055941;28;20090;-57
2022/06/06 14:13:42;;;;;;;5.28;4.10;;;15.40;99.90;;;;;;5047244;28;20055;-58